State Line, IL

10:32 PM CST on February 07, 2016 (GMT -0600)
Vermilion County

Weather History for KDNV - February, 2012

Change the Weather History Date:

Tuesday, February 21, 2012

  Actual Average (KLAF) Record (KLAF)
Temperature  
Mean Temperature 40 °F 32 °F  
Max Temperature 45 °F 41 °F 66 °F (1997)
Min Temperature 36 °F 24 °F 1 °F (1968)
Degree Days  
Heating Degree Days 24 33  
Month to date heating degree days 745  
Since 1 July heating degree days 4113  
Cooling Degree Days 0 0  
Month to date cooling degree days 0  
Year to date cooling degree days 0  
Moisture  
Dew Point 37 °F    
Average Humidity 85    
Maximum Humidity 94    
Minimum Humidity 65    
Precipitation  
Precipitation 0.00 in 0.07 in 0.83 in (2011)
Month to date precipitation 1.24  
Year to date precipitation 3.10  
Sea Level Pressure  
Sea Level Pressure 29.73 in    
Wind  
Wind Speed 13 mph (SSW)    
Max Wind Speed 25 mph    
Max Gust Speed 31 mph    
Visibility 9 miles    
Events Rain    
T = Trace of Precipitation, MM = Missing Value Source: NWS Daily Summary

Daily Weather History Graph

Daily Weather History Graph

Search for Another Location

Airport or City:

Trip Planner

Search our weather history database for the weather conditions in past years. The results will help you decide how hot, cold, wet, or windy it might be!

Date:

Astronomy

Feb. 21, 2012 Rise Set
Actual Time 6:36 AM CST 5:32 PM CST
Civil Twilight 6:08 AM CST 6:00 PM CST
Nautical Twilight 5:37 AM CST 6:31 PM CST
Astronomical Twilight 5:05 AM CST 7:03 PM CST
Moon 6:04 AM CST (2/21) 5:38 PM CST (2/21)
Length of Visible Light 11h 51m
Length of Day
10h 56m
Waning Crescent, 0% of the Moon is Illuminated
Feb 21
Waning Crescent
Feb 21
New
Feb 29
First Quarter
Mar 8
Full
Mar 14
Last Quarter

Hourly Weather History & Observations

Time (CST) Temp. Windchill Dew Point Humidity Pressure Visibility Wind Dir Wind Speed Gust Speed Precip Events Conditions
12:15 AM 38.3 °F 31.4 °F 28.0 °F 67% 29.87 in 7.0 mi SSE 10.4 mph - N/A   Scattered Clouds
12:35 AM 38.7 °F 31.8 °F 27.9 °F 65% 29.86 in 10.0 mi SE 10.4 mph 16.1 mph N/A   Mostly Cloudy
12:55 AM 38.7 °F 31.8 °F 28.2 °F 66% 29.84 in 10.0 mi SSE 10.4 mph - N/A   Mostly Cloudy
1:15 AM 38.7 °F 31.4 °F 28.4 °F 67% 29.82 in 10.0 mi SE 11.5 mph - N/A   Overcast
1:35 AM 38.8 °F 30.8 °F 28.4 °F 66% 29.80 in 10.0 mi SE 13.8 mph 18.4 mph N/A   Overcast
1:55 AM 39.2 °F 31.6 °F 28.4 °F 65% 29.79 in 10.0 mi SSE 12.7 mph - N/A   Overcast
2:15 AM 39.4 °F 32.7 °F 29.1 °F 67% 29.79 in 10.0 mi South 10.4 mph - N/A   Overcast
2:35 AM 36.9 °F 27.8 °F 33.3 °F 87% 29.75 in 7.0 mi South 15.0 mph 29.9 mph N/A Rain Light Rain
2:55 AM 38.3 °F 28.4 °F 33.3 °F 82% 29.74 in 10.0 mi SSE 19.6 mph 26.5 mph N/A Rain Light Rain
3:15 AM 37.4 °F 28.5 °F 33.8 °F 87% 29.72 in 10.0 mi SSE 15.0 mph - N/A Rain Rain
3:35 AM 36.5 °F 31.0 °F 34.3 °F 92% 29.71 in 10.0 mi SSE 6.9 mph - N/A Rain Rain
3:55 AM 36.5 °F 32.7 °F 34.7 °F 93% 29.70 in 10.0 mi SE 4.6 mph - N/A Rain Rain
4:15 AM 36.3 °F 31.6 °F 34.7 °F 94% 29.68 in 10.0 mi ESE 5.8 mph - N/A Rain Light Rain
4:35 AM 36.5 °F 29.7 °F 34.9 °F 94% 29.67 in 10.0 mi ESE 9.2 mph - N/A Rain Light Rain
4:55 AM 37.8 °F 29.8 °F 34.7 °F 89% 29.67 in 10.0 mi SE 12.7 mph - N/A Rain Light Rain
5:15 AM 37.9 °F 31.5 °F 35.1 °F 89% 29.66 in 10.0 mi SSE 9.2 mph - N/A Rain Light Rain
5:35 AM 39.2 °F 33.0 °F 35.6 °F 87% 29.66 in 10.0 mi SSW 9.2 mph 18.4 mph N/A Rain Rain
5:55 AM 39.7 °F 33.2 °F 36.1 °F 87% 29.66 in 10.0 mi SSW 10.4 mph - N/A Rain Light Rain
6:15 AM 40.1 °F 33.2 °F 37.2 °F 89% 29.66 in 10.0 mi SSW 11.5 mph - N/A Rain Light Rain
6:35 AM 40.6 °F 32.7 °F 37.8 °F 89% 29.66 in 10.0 mi SSW 15.0 mph 23.0 mph N/A Rain Light Rain
6:55 AM 40.5 °F 32.1 °F 38.3 °F 92% 29.66 in 10.0 mi SSW 16.1 mph 20.7 mph N/A Rain Light Rain
7:15 AM 40.5 °F 32.8 °F 38.3 °F 92% 29.67 in 10.0 mi SW 13.8 mph 19.6 mph N/A Rain Light Rain
7:35 AM 41.0 °F 33.5 °F 38.3 °F 90% 29.68 in 10.0 mi SW 13.8 mph - N/A Rain Rain
7:55 AM 41.4 °F 33.0 °F 38.7 °F 90% 29.68 in 10.0 mi SW 17.3 mph 24.2 mph N/A Rain Rain
8:15 AM 42.1 °F 34.5 °F 39.4 °F 90% 29.68 in 10.0 mi WSW 15.0 mph 20.7 mph N/A Rain Rain
8:35 AM 42.8 °F 34.8 °F 39.6 °F 88% 29.70 in 10.0 mi SW 17.3 mph - N/A Rain Rain
8:55 AM 42.8 °F 34.0 °F 39.2 °F 87% 29.70 in 10.0 mi WSW 20.7 mph 27.6 mph N/A Rain Rain
9:15 AM 42.6 °F 34.9 °F 39.2 °F 88% 29.71 in 10.0 mi WSW 16.1 mph 23.0 mph N/A Rain Rain
9:35 AM 42.8 °F 35.1 °F 39.4 °F 88% 29.72 in 10.0 mi WSW 16.1 mph 23.0 mph N/A Rain Rain
9:55 AM 43.2 °F 35.0 °F 39.6 °F 87% 29.72 in 10.0 mi WSW 18.4 mph 24.2 mph N/A Rain Rain
10:15 AM 43.3 °F 35.5 °F 39.7 °F 87% 29.72 in 10.0 mi WSW 17.3 mph 21.9 mph N/A Rain Rain
10:35 AM 43.7 °F 36.0 °F 40.1 °F 87% 29.73 in 7.0 mi SW 17.3 mph 23.0 mph N/A Rain Rain
10:55 AM 44.6 °F 37.4 °F 41.0 °F 87% 29.73 in 7.0 mi SW 16.1 mph 23.0 mph N/A Rain Rain
11:15 AM 44.1 °F 36.2 °F 39.6 °F 84% 29.74 in 10.0 mi SW 18.4 mph 24.2 mph N/A Rain Rain
11:35 AM 44.2 °F 37.3 °F 39.7 °F 84% 29.73 in 10.0 mi WSW 15.0 mph 26.5 mph N/A Rain Light Rain
11:55 AM 44.6 °F 36.9 °F 40.3 °F 85% 29.73 in 7.0 mi SW 18.4 mph 25.3 mph N/A   Overcast
12:15 PM 43.9 °F 36.2 °F 41.0 °F 90% 29.73 in 4.0 mi SW 17.3 mph 23.0 mph N/A   Overcast
12:35 PM 43.7 °F 35.2 °F 41.4 °F 91% 29.73 in 4.0 mi SW 20.7 mph 25.3 mph N/A Rain Light Rain
12:55 PM 43.9 °F 36.8 °F 42.1 °F 93% 29.73 in 4.0 mi SW 15.0 mph 25.3 mph N/A Rain Rain
1:15 PM 44.1 °F 34.8 °F 41.5 °F 91% 29.73 in 7.0 mi SW 25.3 mph 29.9 mph N/A Rain Rain
1:35 PM 44.2 °F 36.4 °F 41.0 °F 88% 29.73 in 10.0 mi WSW 18.4 mph 31.1 mph N/A Rain Rain
1:55 PM 43.7 °F 35.7 °F 41.4 °F 91% 29.73 in 4.0 mi SW 18.4 mph 28.8 mph N/A Rain Rain
2:15 PM 43.5 °F 35.2 °F 41.4 °F 92% 29.73 in 4.0 mi WSW 19.6 mph 28.8 mph N/A Rain Light Rain
2:35 PM 43.2 °F 34.2 °F 41.0 °F 92% 29.74 in 7.0 mi WSW 21.9 mph 31.1 mph N/A Rain Rain
2:55 PM 44.2 °F 37.0 °F 41.4 °F 90% 29.74 in 7.0 mi WSW 16.1 mph - N/A Rain Rain
3:15 PM 44.6 °F 37.8 °F 41.4 °F 88% 29.74 in 7.0 mi WSW 15.0 mph 23.0 mph N/A Rain Rain
3:35 PM 45.0 °F 37.4 °F 41.2 °F 87% 29.74 in 7.0 mi SW 18.4 mph 21.9 mph N/A Rain Rain
3:55 PM 45.1 °F 38.1 °F 41.0 °F 85% 29.75 in 10.0 mi SW 16.1 mph 24.2 mph N/A Rain Rain
4:15 PM 44.8 °F 37.7 °F 41.0 °F 87% 29.76 in 10.0 mi SW 16.1 mph 21.9 mph N/A Rain Rain
4:35 PM 44.8 °F 37.4 °F 40.5 °F 85% 29.76 in 7.0 mi SW 17.3 mph 24.2 mph N/A Rain Rain
4:55 PM 44.6 °F 38.1 °F 40.1 °F 84% 29.76 in 7.0 mi SW 13.8 mph - N/A Rain Rain
5:15 PM 44.1 °F 37.1 °F 39.6 °F 84% 29.76 in 10.0 mi SW 15.0 mph - N/A Rain Light Rain
5:35 PM 43.7 °F 36.9 °F 39.6 °F 85% 29.77 in 10.0 mi SW 13.8 mph - N/A Rain Light Rain
5:55 PM 44.1 °F 37.1 °F 39.4 °F 84% 29.78 in 10.0 mi SW 15.0 mph 18.4 mph N/A Rain Light Rain
6:15 PM 44.4 °F 37.5 °F 38.7 °F 80% 29.78 in 10.0 mi SW 15.0 mph - N/A   Scattered Clouds
6:35 PM 44.6 °F 37.8 °F 39.2 °F 81% 29.78 in 10.0 mi SW 15.0 mph - N/A   Scattered Clouds
6:55 PM 43.7 °F 36.6 °F 37.9 °F 80% 29.78 in 10.0 mi SW 15.0 mph 19.6 mph N/A   Clear
7:15 PM 43.5 °F 36.1 °F 37.6 °F 80% 29.78 in 10.0 mi SW 16.1 mph - N/A   Clear
7:35 PM 43.0 °F 36.0 °F 37.0 °F 80% 29.78 in 10.0 mi SW 13.8 mph 19.6 mph N/A   Scattered Clouds
7:55 PM 42.8 °F 35.1 °F 36.5 °F 78% 29.78 in 10.0 mi SW 16.1 mph 20.7 mph N/A   Scattered Clouds
8:15 PM 42.4 °F 35.3 °F 36.1 °F 78% 29.78 in 10.0 mi SW 13.8 mph - N/A   Mostly Cloudy
8:35 PM 42.3 °F 34.8 °F 35.6 °F 77% 29.78 in 10.0 mi SW 15.0 mph 19.6 mph N/A   Mostly Cloudy
8:55 PM 42.8 °F 35.1 °F 34.7 °F 73% 29.78 in 10.0 mi SW 16.1 mph 19.6 mph N/A   Mostly Cloudy
9:15 PM 41.9 °F 35.4 °F 33.8 °F 73% 29.78 in 10.0 mi SW 11.5 mph - N/A   Scattered Clouds
9:35 PM 40.8 °F 34.1 °F 33.8 °F 76% 29.78 in 10.0 mi SW 11.5 mph - N/A   Scattered Clouds
9:55 PM 39.9 °F 32.9 °F 33.1 °F 77% 29.78 in 10.0 mi SW 11.5 mph - N/A   Clear
10:15 PM 39.9 °F 32.9 °F 32.5 °F 75% 29.77 in 10.0 mi SW 11.5 mph - N/A   Clear
10:35 PM 40.1 °F 32.7 °F 32.0 °F 73% 29.76 in 10.0 mi SW 12.7 mph - N/A   Scattered Clouds
10:55 PM 39.2 °F 32.5 °F 32.0 °F 75% 29.75 in 10.0 mi SW 10.4 mph - N/A   Clear
11:15 PM 38.5 °F 32.7 °F 32.2 °F 78% 29.75 in 10.0 mi SSW 8.1 mph - N/A   Clear
11:35 PM 36.9 °F 30.7 °F 32.0 °F 83% 29.75 in 7.0 mi SSW 8.1 mph - N/A   Clear
11:55 PM 36.5 °F 31.0 °F 32.0 °F 84% 29.74 in 10.0 mi SW 6.9 mph - N/A   Scattered Clouds